Terminal Aerodrome Forecast
Issued by NWS Charleston, WV

Current Version | Previous Version | Graphics & Text | Print | Product List | Glossary On
Versions: 1 2 3 4 5 6 7 8 9 10 11 12 13 14 15 16 17 18 19 20 21 22 23 24 25 26 27 28 29 30 31 32
000
FTUS41 KRLX 221100
TAFBKW
TAF
KBKW 221139Z 2212/2312 31007KT 4SM -RA BR OVC002
     FM221400 32008KT P6SM OVC008
     FM221700 32009KT P6SM OVC015
     FM230300 32008KT P6SM BKN010
     FM230700 32008KT P6SM BKN015=

USA.gov is the U.S. government's official web portal to all federal, state and local government web resources and services.